createdAt,value
2023-05-07T00:00:19.379Z,100698.85
2023-05-07T00:01:22.595Z,100696.18
2023-05-07T00:02:26.540Z,100699.70
2023-05-07T00:03:30.144Z,100693.51
2023-05-07T00:04:35.563Z,100694.36
2023-05-07T00:05:38.752Z,100694.36
2023-05-07T00:07:53.369Z,100692.95
2023-05-07T00:08:57.400Z,100700.64
2023-05-07T00:10:00.056Z,100693.59
2023-05-07T00:11:04.909Z,100696.26
2023-05-07T00:12:08.051Z,100692.62
2023-05-07T00:13:11.189Z,100697.03
2023-05-07T00:14:16.095Z,100689.02
2023-05-07T00:15:20.459Z,100690.84
2023-05-07T00:16:24.354Z,100699.70
2023-05-07T00:17:28.101Z,100697.03
2023-05-07T00:18:31.966Z,100690.84
2023-05-07T00:19:34.746Z,100692.55
2023-05-07T00:20:37.765Z,100695.17
2023-05-07T00:21:40.680Z,100696.10
2023-05-07T00:22:45.195Z,100686.27
2023-05-07T00:23:48.197Z,100689.83
2023-05-07T00:24:51.427Z,100692.55
2023-05-07T00:25:54.639Z,100691.69
2023-05-07T00:26:58.997Z,100697.03
2023-05-07T00:28:03.583Z,100692.55
2023-05-07T00:29:06.850Z,100690.76
2023-05-07T00:30:13.311Z,100693.43
2023-05-07T00:31:16.529Z,100686.34
2023-05-07T00:32:19.883Z,100685.42
2023-05-07T00:33:23.577Z,100686.34
2023-05-07T00:34:26.928Z,100680.08
2023-05-07T00:35:31.169Z,100687.20
2023-05-07T00:36:35.208Z,100681.86
2023-05-07T00:37:38.881Z,100683.67
2023-05-07T00:38:42.679Z,100672.06
2023-05-07T00:39:45.592Z,100675.66
2023-05-07T00:40:48.834Z,100676.52
2023-05-07T00:41:52.769Z,100685.42
2023-05-07T00:42:59.502Z,100681.86
2023-05-07T00:44:03.642Z,100674.73
2023-05-07T00:45:09.193Z,100676.52
2023-05-07T00:46:15.943Z,100684.53
2023-05-07T00:47:18.787Z,100673.84
2023-05-07T00:48:22.043Z,100686.34
2023-05-07T00:49:29.544Z,100676.52
2023-05-07T00:50:32.891Z,100681.01
2023-05-07T00:51:36.096Z,100676.52
2023-05-07T00:52:40.044Z,100681.94
2023-05-07T00:53:43.310Z,100684.53
2023-05-07T00:54:47.833Z,100683.67
2023-05-07T00:55:51.684Z,100684.53
2023-05-07T00:56:55.852Z,100659.16
2023-05-07T00:57:59.345Z,100659.16
2023-05-07T00:59:03.341Z,100682.83
2023-05-07T01:01:23.321Z,100681.33
2023-05-07T01:03:40.309Z,100679.59
2023-05-07T01:04:44.933Z,100687.20
2023-05-07T01:05:47.999Z,100692.55
2023-05-07T01:06:51.602Z,100684.53
2023-05-07T01:07:55.390Z,100688.09
2023-05-07T01:08:58.436Z,100688.94
2023-05-07T01:10:02.752Z,100694.20
2023-05-07T01:11:06.169Z,100689.95
2023-05-07T01:12:09.958Z,100689.95
2023-05-07T01:14:25.829Z,100696.35
2023-05-07T01:15:28.980Z,100701.28
2023-05-07T01:16:32.241Z,100705.70
2023-05-07T01:17:36.328Z,100707.48
2023-05-07T01:18:39.390Z,100709.30
2023-05-07T01:19:44.106Z,100694.59
2023-05-07T01:20:47.765Z,100710.16
2023-05-07T01:21:51.994Z,100697.11
2023-05-07T01:22:56.533Z,100701.60
2023-05-07T01:23:59.701Z,100701.60
2023-05-07T01:25:04.812Z,100708.52
2023-05-07T01:26:08.012Z,100709.38
2023-05-07T01:27:11.119Z,100712.91
2023-05-07T01:28:15.413Z,100711.11
2023-05-07T01:29:20.701Z,100716.45
2023-05-07T01:30:23.994Z,100707.56
2023-05-07T01:31:27.556Z,100711.20
2023-05-07T01:33:48.546Z,100716.88
2023-05-07T01:34:51.252Z,100712.91
2023-05-07T01:35:54.576Z,100713.91
2023-05-07T01:36:58.537Z,100712.13
2023-05-07T01:38:02.464Z,100717.47
2023-05-07T01:39:06.935Z,100712.13
2023-05-07T01:40:11.635Z,100710.39
2023-05-07T01:41:14.769Z,100710.39
2023-05-07T01:42:20.969Z,100713.06
2023-05-07T01:43:23.898Z,100714.80
2023-05-07T01:44:28.037Z,100720.22
2023-05-07T01:45:31.415Z,100721.08
2023-05-07T01:46:35.915Z,100718.40
2023-05-07T01:47:39.785Z,100719.25
2023-05-07T01:48:45.409Z,100713.91
2023-05-07T01:49:48.127Z,100716.58
2023-05-07T01:50:52.089Z,100713.06
2023-05-07T01:51:56.527Z,100710.39
2023-05-07T01:53:00.021Z,100716.58
2023-05-07T01:54:03.197Z,100714.80
2023-05-07T01:55:08.798Z,100716.58
2023-05-07T01:56:13.031Z,100718.33
2023-05-07T01:57:16.472Z,100722.81
2023-05-07T01:58:19.351Z,100719.20
2023-05-07T01:59:23.911Z,100719.20
2023-05-07T02:00:27.654Z,100717.47
2023-05-07T02:01:31.393Z,100721.92
2023-05-07T02:02:34.834Z,100723.74
2023-05-07T02:03:38.405Z,100722.81
2023-05-07T02:04:43.798Z,100728.16
2023-05-07T02:05:48.057Z,100719.20
2023-05-07T02:07:05.911Z,100719.20
2023-05-07T02:08:09.493Z,100725.41
2023-05-07T02:09:12.386Z,100729.81
2023-05-07T02:10:17.477Z,100725.33
2023-05-07T02:11:21.379Z,100728.84
2023-05-07T02:12:25.599Z,100726.17
2023-05-07T02:13:33.009Z,100727.92
2023-05-07T02:14:35.800Z,100724.39
2023-05-07T02:15:38.678Z,100721.72
2023-05-07T02:16:43.550Z,100732.41
2023-05-07T02:18:03.660Z,100730.67
2023-05-07T02:19:07.846Z,100731.52
2023-05-07T02:20:13.698Z,100741.35
2023-05-07T02:21:17.811Z,100734.19
2023-05-07T02:22:21.785Z,100741.35
2023-05-07T02:23:25.480Z,100740.50
2023-05-07T02:24:29.384Z,100742.28
2023-05-07T02:25:33.162Z,100746.69
2023-05-07T02:26:36.730Z,100744.95
2023-05-07T02:27:39.744Z,100745.84
2023-05-07T02:28:42.633Z,100744.02
2023-05-07T02:29:46.810Z,100743.17
2023-05-07T02:30:49.946Z,100748.52
2023-05-07T02:31:53.463Z,100740.50
2023-05-07T02:32:58.236Z,100742.20
2023-05-07T02:34:02.306Z,100743.09
2023-05-07T02:35:06.712Z,100749.29
2023-05-07T02:36:10.761Z,100745.77
2023-05-07T02:37:19.660Z,100747.47
2023-05-07T02:38:23.587Z,100741.20
2023-05-07T02:39:28.455Z,100743.87
2023-05-07T02:40:33.872Z,100749.20
2023-05-07T02:41:36.802Z,100746.54
2023-05-07T02:42:39.924Z,100744.75
2023-05-07T02:43:44.109Z,100749.20
2023-05-07T02:44:47.671Z,100749.20
2023-05-07T02:47:16.720Z,100744.28
2023-05-07T02:48:20.620Z,100750.95
2023-05-07T02:49:23.416Z,100754.55
2023-05-07T02:50:28.201Z,100755.44
2023-05-07T02:51:32.447Z,100752.77
2023-05-07T02:52:36.889Z,100768.72
2023-05-07T02:53:40.071Z,100760.78
2023-05-07T02:54:42.780Z,100763.38
2023-05-07T02:55:47.183Z,100763.38
2023-05-07T02:56:50.323Z,100764.31
2023-05-07T02:57:53.778Z,100762.48
2023-05-07T02:58:57.246Z,100764.31
2023-05-07T03:00:13.014Z,100760.78
2023-05-07T03:01:17.003Z,100766.98
2023-05-07T03:02:34.967Z,100755.44
2023-05-07T03:03:37.919Z,100758.11
2023-05-07T03:04:42.153Z,100758.11
2023-05-07T03:05:45.510Z,100763.45
2023-05-07T03:06:48.567Z,100765.23
2023-05-07T03:07:51.590Z,100758.16
2023-05-07T03:08:54.286Z,100759.89
2023-05-07T03:09:57.492Z,100763.50
2023-05-07T03:11:00.651Z,100767.91
2023-05-07T03:12:04.760Z,100759.89
2023-05-07T03:13:08.098Z,100759.89
2023-05-07T03:14:11.232Z,100761.63
2023-05-07T03:15:14.768Z,100771.47
2023-05-07T03:16:18.311Z,100759.89
2023-05-07T03:17:21.496Z,100766.17
2023-05-07T03:18:25.016Z,100772.40
2023-05-07T03:19:31.079Z,100775.92
2023-05-07T03:20:37.149Z,100775.92
2023-05-07T03:21:40.756Z,100783.94
2023-05-07T03:22:44.647Z,100780.41
2023-05-07T03:23:47.856Z,100777.73
2023-05-07T03:24:51.291Z,100778.59
2023-05-07T03:25:54.322Z,100781.27
2023-05-07T03:26:58.125Z,100779.53
2023-05-07T03:28:02.352Z,100782.16
2023-05-07T03:29:07.250Z,100775.92
2023-05-07T03:30:12.394Z,100776.81
2023-05-07T03:31:16.427Z,100781.27
2023-05-07T03:32:20.124Z,100776.85
2023-05-07T03:33:24.660Z,100774.19
2023-05-07T03:34:29.271Z,100777.81
2023-05-07T03:35:34.279Z,100782.20
2023-05-07T03:36:37.377Z,100778.59
2023-05-07T03:37:41.240Z,100778.59
2023-05-07T03:38:44.374Z,100788.42
2023-05-07T03:39:47.516Z,100791.17
2023-05-07T03:40:50.440Z,100792.03
2023-05-07T03:41:54.292Z,100796.52
2023-05-07T03:42:57.306Z,100792.95
2023-05-07T03:44:01.875Z,100794.78
2023-05-07T03:45:05.787Z,100790.29
2023-05-07T03:46:09.884Z,100793.84
2023-05-07T03:47:13.731Z,100798.22
2023-05-07T03:48:16.765Z,100793.84
2023-05-07T03:49:19.860Z,100796.44
2023-05-07T03:50:22.774Z,100799.11
2023-05-07T03:51:26.015Z,100803.52
2023-05-07T03:52:29.430Z,100807.98
2023-05-07T03:53:33.957Z,100806.20
2023-05-07T03:54:37.402Z,100805.31
2023-05-07T03:55:40.988Z,100800.90
2023-05-07T03:56:43.990Z,100806.23
2023-05-07T03:57:46.712Z,100808.91
2023-05-07T03:58:49.956Z,100801.78
2023-05-07T03:59:56.548Z,100807.13
2023-05-07T04:01:00.551Z,100799.97
2023-05-07T04:02:05.704Z,100806.20
2023-05-07T04:03:10.285Z,100807.98
2023-05-07T04:04:13.345Z,100815.06
2023-05-07T04:05:17.969Z,100807.98
2023-05-07T04:06:21.943Z,100804.38
2023-05-07T04:07:25.464Z,100806.20
2023-05-07T04:08:28.960Z,100813.25
2023-05-07T04:09:32.744Z,100815.06
2023-05-07T04:10:36.952Z,100815.92
2023-05-07T04:11:42.388Z,100809.72
2023-05-07T04:12:46.221Z,100805.23
2023-05-07T04:13:51.085Z,100810.58
2023-05-07T04:14:55.891Z,100807.05
2023-05-07T04:16:03.129Z,100807.91
2023-05-07T04:17:07.593Z,100807.98
2023-05-07T04:18:11.502Z,100810.65
2023-05-07T04:19:16.620Z,100813.25
2023-05-07T04:20:22.794Z,100815.06
2023-05-07T04:21:27.756Z,100805.23
2023-05-07T04:22:30.689Z,100810.58
2023-05-07T04:23:34.656Z,100807.91
2023-05-07T04:24:40.509Z,100806.12
2023-05-07T04:25:43.567Z,100807.83
2023-05-07T04:26:49.210Z,100806.12
2023-05-07T04:27:52.858Z,100805.23
2023-05-07T04:28:55.823Z,100807.83
2023-05-07T04:30:02.763Z,100804.30
2023-05-07T04:31:07.248Z,100804.30
2023-05-07T04:32:11.648Z,100795.44
2023-05-07T04:34:29.423Z,100796.70
2023-05-07T04:35:33.860Z,100796.28
2023-05-07T04:36:37.327Z,100804.38
2023-05-07T04:37:42.367Z,100802.56
2023-05-07T04:38:45.808Z,100799.89
2023-05-07T04:39:49.478Z,100801.70
2023-05-07T04:40:53.436Z,100801.70
2023-05-07T04:41:58.283Z,100799.89
2023-05-07T04:43:01.698Z,100809.64
2023-05-07T04:44:06.893Z,100811.46
2023-05-07T04:46:22.792Z,100810.06
2023-05-07T04:47:26.527Z,100800.78
2023-05-07T04:48:30.563Z,100803.45
2023-05-07T04:49:34.390Z,100806.12
2023-05-07T04:50:38.118Z,100803.45
2023-05-07T04:51:44.875Z,100797.14
2023-05-07T04:52:48.933Z,100800.70
2023-05-07T04:53:51.998Z,100798.10
2023-05-07T04:54:58.544Z,100791.80
2023-05-07T04:56:01.613Z,100797.22
2023-05-07T04:57:06.524Z,100796.36
2023-05-07T04:58:09.878Z,100801.70
2023-05-07T04:59:13.301Z,100799.03
2023-05-07T05:00:19.801Z,100796.36
2023-05-07T05:01:24.066Z,100791.88
2023-05-07T05:02:27.101Z,100784.75
2023-05-07T05:03:31.727Z,100793.69
2023-05-07T05:04:35.181Z,100793.69
2023-05-07T05:05:39.597Z,100797.22
2023-05-07T05:06:43.234Z,100788.34
2023-05-07T05:07:47.322Z,100791.02
2023-05-07T05:08:52.168Z,100783.86
2023-05-07T05:09:57.119Z,100785.68
2023-05-07T05:11:02.823Z,100784.75
2023-05-07T05:12:08.692Z,100783.00
2023-05-07T05:13:14.203Z,100778.52
2023-05-07T05:14:18.338Z,100777.66
2023-05-07T05:15:21.170Z,100778.59
2023-05-07T05:16:25.189Z,100781.27
2023-05-07T05:17:27.972Z,100775.92
2023-05-07T05:18:31.965Z,100775.92
2023-05-07T05:19:35.427Z,100781.27
2023-05-07T05:20:38.338Z,100775.07
2023-05-07T05:21:42.230Z,100773.25
2023-05-07T05:22:46.707Z,100765.23
2023-05-07T05:23:49.599Z,100780.41
2023-05-07T05:24:56.290Z,100771.47
2023-05-07T05:25:59.865Z,100768.84
2023-05-07T05:27:06.232Z,100773.25
2023-05-07T05:28:09.813Z,100778.59
2023-05-07T05:29:13.187Z,100770.58
2023-05-07T05:30:17.236Z,100778.59
2023-05-07T05:31:21.847Z,100781.27
2023-05-07T05:32:27.233Z,100778.91
2023-05-07T05:33:31.273Z,100778.91
2023-05-07T05:34:37.009Z,100773.33
2023-05-07T05:35:41.230Z,100776.85
2023-05-07T05:36:47.265Z,100782.20
2023-05-07T05:37:50.631Z,100779.53
2023-05-07T05:38:53.748Z,100768.84
2023-05-07T05:39:56.404Z,100773.33
2023-05-07T05:41:01.342Z,100766.25
2023-05-07T05:42:06.375Z,100768.06
2023-05-07T05:43:10.581Z,100765.39
2023-05-07T05:44:14.906Z,100760.05
2023-05-07T05:45:19.290Z,100768.92
2023-05-07T05:46:22.388Z,100763.58
2023-05-07T05:47:27.260Z,100769.80
2023-05-07T05:48:31.215Z,100768.92
2023-05-07T05:49:35.580Z,100773.41
2023-05-07T05:50:39.066Z,100769.88
2023-05-07T05:51:42.411Z,100772.55
2023-05-07T05:52:46.549Z,100780.56
2023-05-07T05:53:49.615Z,100778.75
2023-05-07T05:54:52.749Z,100768.14
2023-05-07T05:55:55.688Z,100767.21
2023-05-07T05:56:58.695Z,100769.88
2023-05-07T05:58:01.758Z,100771.59
2023-05-07T05:59:05.333Z,100765.39
2023-05-07T06:00:10.227Z,100770.73
2023-05-07T06:01:15.505Z,100768.92
2023-05-07T06:02:19.196Z,100764.54
2023-05-07T06:03:24.516Z,100768.06
2023-05-07T06:04:28.312Z,100768.06
2023-05-07T06:05:31.964Z,100773.41
2023-05-07T06:06:35.024Z,100760.05
2023-05-07T06:07:38.400Z,100760.05
2023-05-07T06:08:42.353Z,100763.66
2023-05-07T06:09:47.079Z,100758.23
2023-05-07T06:10:50.636Z,100756.53
2023-05-07T06:11:54.012Z,100757.38
2023-05-07T06:12:57.923Z,100758.23
2023-05-07T06:14:03.143Z,100760.91
2023-05-07T06:15:07.820Z,100751.11
2023-05-07T06:16:11.023Z,100761.79
2023-05-07T06:17:14.468Z,100758.23
2023-05-07T06:18:18.255Z,100764.38
2023-05-07T06:19:24.230Z,100766.17
2023-05-07T06:20:27.805Z,100767.98
2023-05-07T06:21:31.459Z,100763.50
2023-05-07T06:22:34.234Z,100768.84
2023-05-07T06:23:36.829Z,100771.47
2023-05-07T06:24:40.231Z,100759.89
2023-05-07T06:25:51.518Z,100759.89
2023-05-07T06:26:55.734Z,100761.63
2023-05-07T06:27:59.314Z,100766.98
2023-05-07T06:29:02.781Z,100766.98
2023-05-07T06:31:38.436Z,100764.64
2023-05-07T06:32:43.575Z,100763.38
2023-05-07T06:33:48.626Z,100767.83
2023-05-07T06:34:51.537Z,100774.99
2023-05-07T06:35:55.247Z,100778.52
2023-05-07T06:37:00.422Z,100769.65
2023-05-07T06:38:07.747Z,100772.32
2023-05-07T06:39:11.101Z,100769.65
2023-05-07T06:40:15.976Z,100773.17
2023-05-07T06:41:19.319Z,100779.41
2023-05-07T06:42:22.194Z,100786.45
2023-05-07T06:44:38.769Z,100778.84
2023-05-07T06:45:43.312Z,100781.06
2023-05-07T06:46:47.229Z,100778.39
2023-05-07T06:47:50.995Z,100786.41
2023-05-07T06:48:57.155Z,100780.18
2023-05-07T06:50:00.575Z,100784.67
2023-05-07T06:51:04.695Z,100785.52
2023-05-07T06:52:08.334Z,100798.88
2023-05-07T06:53:11.958Z,100786.45
2023-05-07T06:54:15.378Z,100786.45
2023-05-07T06:55:23.402Z,100794.47
2023-05-07T06:56:27.891Z,100780.34
2023-05-07T06:57:31.297Z,100786.53
2023-05-07T06:58:34.691Z,100777.66
2023-05-07T06:59:37.884Z,100786.53
2023-05-07T07:00:42.086Z,100790.09
2023-05-07T07:01:46.215Z,100778.59
2023-05-07T07:02:50.020Z,100783.08
2023-05-07T07:03:55.088Z,100792.88
2023-05-07T07:04:59.254Z,100780.48
2023-05-07T07:06:03.982Z,100787.62
2023-05-07T07:07:09.177Z,100781.42
2023-05-07T07:08:11.931Z,100785.02
2023-05-07T07:09:15.821Z,100787.70
2023-05-07T07:10:25.066Z,100785.02
2023-05-07T07:11:28.071Z,100784.17
2023-05-07T07:12:32.019Z,100783.31
2023-05-07T07:13:36.192Z,100781.50
2023-05-07T07:14:40.299Z,100780.64
2023-05-07T07:15:44.308Z,100777.97
2023-05-07T07:16:47.333Z,100772.63
2023-05-07T07:17:50.399Z,100784.25
2023-05-07T07:18:53.142Z,100783.36
2023-05-07T07:19:57.053Z,100778.98
2023-05-07T07:21:01.305Z,100778.98
2023-05-07T07:22:04.417Z,100780.77
2023-05-07T07:23:07.280Z,100778.09
2023-05-07T07:24:10.190Z,100779.06
2023-05-07T07:25:13.166Z,100776.39
2023-05-07T07:26:16.866Z,100771.90
2023-05-07T07:27:20.925Z,100780.77
2023-05-07T07:28:24.074Z,100772.75
2023-05-07T07:29:27.213Z,100776.31
2023-05-07T07:30:31.374Z,100766.48
2023-05-07T07:31:34.324Z,100767.33
2023-05-07T07:32:38.035Z,100769.07
2023-05-07T07:33:42.281Z,100769.00
2023-05-07T07:34:45.406Z,100766.33
2023-05-07T07:35:48.635Z,100771.67
2023-05-07T07:36:51.551Z,100765.39
2023-05-07T07:37:55.127Z,100773.41
2023-05-07T07:38:58.200Z,100774.27
2023-05-07T07:40:02.325Z,100777.81
2023-05-07T07:41:05.137Z,100773.33
2023-05-07T07:42:07.966Z,100772.47
2023-05-07T07:43:10.865Z,100776.85
2023-05-07T07:44:15.364Z,100776.00
2023-05-07T07:45:18.564Z,100776.00
2023-05-07T07:46:23.182Z,100769.80
2023-05-07T07:47:26.844Z,100771.59
2023-05-07T07:48:30.655Z,100769.88
2023-05-07T07:49:34.817Z,100772.47
2023-05-07T07:50:45.190Z,100776.08
2023-05-07T07:51:45.872Z,100774.27
2023-05-07T07:52:49.810Z,100768.84
2023-05-07T07:53:54.012Z,100775.15
2023-05-07T07:54:57.046Z,100773.33
2023-05-07T07:56:01.876Z,100781.34
2023-05-07T07:57:07.860Z,100772.47
2023-05-07T07:58:12.277Z,100765.31
2023-05-07T07:59:17.136Z,100769.80
2023-05-07T08:00:20.725Z,100768.92
2023-05-07T08:01:25.925Z,100769.80
2023-05-07T08:02:30.613Z,100767.98
2023-05-07T08:03:34.172Z,100765.31
2023-05-07T08:04:40.831Z,100771.52
2023-05-07T08:05:46.310Z,100771.52
2023-05-07T08:06:49.516Z,100775.92
2023-05-07T08:07:53.608Z,100772.32
2023-05-07T08:08:59.243Z,100774.14
2023-05-07T08:10:03.032Z,100775.84
2023-05-07T08:11:06.575Z,100767.91
2023-05-07T08:13:22.403Z,100768.33
2023-05-07T08:14:26.072Z,100781.27
2023-05-07T08:15:28.836Z,100768.84
2023-05-07T08:16:31.899Z,100772.47
2023-05-07T08:17:36.811Z,100778.67
2023-05-07T08:18:40.343Z,100777.81
2023-05-07T08:19:44.543Z,100771.52
2023-05-07T08:20:52.937Z,100779.53
2023-05-07T08:22:41.589Z,100775.15
2023-05-07T08:23:49.798Z,100786.77
2023-05-07T08:24:55.148Z,100774.34
2023-05-07T08:26:00.150Z,100777.90
2023-05-07T08:27:03.083Z,100769.95
2023-05-07T08:28:09.647Z,100766.41
2023-05-07T08:29:12.770Z,100769.15
2023-05-07T08:30:16.619Z,100769.15
2023-05-07T08:31:21.370Z,100768.30
2023-05-07T08:32:26.521Z,100770.16
2023-05-07T08:33:31.403Z,100776.51
2023-05-07T08:34:34.129Z,100764.97
2023-05-07T08:35:39.268Z,100770.31
2023-05-07T08:36:42.425Z,100765.05
2023-05-07T08:37:47.713Z,100770.39
2023-05-07T08:38:52.776Z,100765.98
2023-05-07T08:41:23.407Z,100769.50
2023-05-07T08:42:26.587Z,100757.97
2023-05-07T08:44:42.001Z,100761.95
2023-05-07T08:46:59.899Z,100756.73
2023-05-07T08:48:04.599Z,100755.53
2023-05-07T08:49:08.968Z,100761.80
2023-05-07T08:50:13.760Z,100764.62
2023-05-07T08:52:31.651Z,100755.14
2023-05-07T08:53:35.220Z,100752.13
2023-05-07T08:54:38.693Z,100754.02
2023-05-07T08:55:42.170Z,100763.73
2023-05-07T08:56:45.506Z,100765.47
2023-05-07T08:57:48.898Z,100767.22
2023-05-07T08:58:52.674Z,100764.55
2023-05-07T08:59:55.831Z,100760.95
2023-05-07T09:00:59.021Z,100770.66
2023-05-07T09:02:02.393Z,100764.39
2023-05-07T09:03:06.787Z,100766.20
2023-05-07T09:04:10.026Z,100763.61
2023-05-07T09:05:13.192Z,100768.95
2023-05-07T09:06:20.502Z,100764.55
2023-05-07T09:07:25.228Z,100768.06
2023-05-07T09:09:40.188Z,100758.78
2023-05-07T09:10:43.417Z,100767.29
2023-05-07T09:11:46.275Z,100760.21
2023-05-07T09:12:53.292Z,100761.06
2023-05-07T09:13:58.797Z,100766.41
2023-05-07T09:15:03.047Z,100765.47
2023-05-07T09:17:25.814Z,100756.03
2023-05-07T09:18:29.294Z,100763.61
2023-05-07T09:19:32.272Z,100761.02
2023-05-07T09:20:40.484Z,100768.95
2023-05-07T09:21:43.672Z,100770.73
2023-05-07T09:22:46.920Z,100771.63
2023-05-07T09:23:56.112Z,100765.40
2023-05-07T09:25:00.647Z,100760.06
2023-05-07T09:26:04.753Z,100775.07
2023-05-07T09:27:10.457Z,100772.41
2023-05-07T09:28:14.122Z,100763.46
2023-05-07T09:29:18.720Z,100769.73
2023-05-07T09:30:23.203Z,100766.13
2023-05-07T09:31:27.291Z,100764.39
2023-05-07T09:32:31.802Z,100768.80
2023-05-07T09:34:48.703Z,100770.97
2023-05-07T09:35:54.139Z,100763.46
2023-05-07T09:36:59.188Z,100766.13
2023-05-07T09:38:03.841Z,100767.88
2023-05-07T09:39:08.879Z,100760.80
2023-05-07T09:40:23.260Z,100777.67
2023-05-07T09:41:26.585Z,100770.55
2023-05-07T09:43:43.139Z,100769.15
2023-05-07T09:46:00.712Z,100775.34
2023-05-07T09:47:08.837Z,100770.55
2023-05-07T09:48:13.279Z,100768.73
2023-05-07T09:49:22.646Z,100767.88
2023-05-07T09:51:44.015Z,100767.29
2023-05-07T09:55:13.585Z,100776.16
2023-05-07T09:56:17.549Z,100776.66
2023-05-07T09:57:21.033Z,100782.00
2023-05-07T09:58:26.425Z,100775.73
2023-05-07T09:59:30.470Z,100771.24
2023-05-07T10:00:35.652Z,100775.66
2023-05-07T10:01:42.606Z,100767.56
2023-05-07T10:02:49.339Z,100774.57
2023-05-07T10:03:52.713Z,100775.42
2023-05-07T10:04:56.753Z,100772.67
2023-05-07T10:06:03.270Z,100765.55
2023-05-07T10:07:07.495Z,100768.14
2023-05-07T10:09:24.109Z,100758.73
2023-05-07T10:10:27.671Z,100765.39
2023-05-07T10:11:30.353Z,100757.38
2023-05-07T10:12:37.143Z,100757.38
2023-05-07T10:13:40.693Z,100764.46
2023-05-07T10:14:45.108Z,100756.37
2023-05-07T10:15:48.202Z,100765.23
2023-05-07T10:16:53.483Z,100759.89
2023-05-07T10:17:57.491Z,100755.44
2023-05-07T10:19:01.249Z,100754.47
2023-05-07T10:20:08.466Z,100747.34
2023-05-07T10:21:19.721Z,100742.86
2023-05-07T10:22:23.429Z,100749.94
2023-05-07T10:23:27.268Z,100745.45
2023-05-07T10:24:36.950Z,100738.37
2023-05-07T10:25:42.943Z,100734.77
2023-05-07T10:26:51.589Z,100742.78
2023-05-07T10:27:55.658Z,100737.44
2023-05-07T10:30:50.954Z,100729.87
2023-05-07T10:32:14.034Z,100728.56
2023-05-07T10:33:17.844Z,100724.97
2023-05-07T10:34:25.209Z,100721.41
2023-05-07T10:35:30.795Z,100722.34
2023-05-07T10:36:36.385Z,100722.34
2023-05-07T10:37:41.724Z,100723.30
2023-05-07T10:38:46.569Z,100726.83
2023-05-07T10:39:49.854Z,100723.30
2023-05-07T10:40:52.717Z,100725.98
2023-05-07T10:41:55.803Z,100728.65
2023-05-07T10:43:05.996Z,100723.30
2023-05-07T10:45:41.432Z,100708.53
2023-05-07T10:48:29.726Z,100704.05
2023-05-07T10:49:24.728Z,100717.80
2023-05-07T10:50:37.397Z,100710.72
2023-05-07T10:51:40.807Z,100708.05
2023-05-07T10:52:47.061Z,100710.72
2023-05-07T10:55:24.855Z,100706.62
2023-05-07T10:57:41.441Z,100710.15
2023-05-07T10:58:46.462Z,100713.23
2023-05-07T11:03:09.260Z,100707.39
2023-05-07T11:04:21.721Z,100710.56
2023-05-07T11:05:35.760Z,100700.77
2023-05-07T11:07:10.570Z,100708.70
2023-05-07T11:08:15.373Z,100698.09
2023-05-07T11:10:52.481Z,100690.51
2023-05-07T11:12:00.214Z,100712.38
2023-05-07T11:13:04.787Z,100707.03
2023-05-07T11:14:09.458Z,100708.86
2023-05-07T11:16:49.499Z,100710.15
2023-05-07T11:19:12.527Z,100699.46
2023-05-07T11:20:18.865Z,100699.02
2023-05-07T11:21:41.302Z,100692.83
2023-05-07T11:22:46.921Z,100694.53
2023-05-07T11:23:56.881Z,100692.83
2023-05-07T11:25:06.994Z,100691.86
2023-05-07T11:26:12.200Z,100693.68
2023-05-07T11:27:15.279Z,100686.52
2023-05-07T11:28:18.568Z,100678.50
2023-05-07T11:29:27.328Z,100686.52
2023-05-07T11:30:38.230Z,100678.50
2023-05-07T11:31:42.210Z,100682.91
2023-05-07T11:32:46.977Z,100687.41
2023-05-07T11:33:51.613Z,100685.58
2023-05-07T11:34:56.160Z,100687.41
2023-05-07T11:35:58.940Z,100701.61
2023-05-07T11:37:03.691Z,100705.22
2023-05-07T11:38:15.382Z,100701.61
2023-05-07T11:39:33.155Z,100701.61
2023-05-07T11:40:37.249Z,100698.95
2023-05-07T11:41:40.350Z,100699.83
2023-05-07T11:42:43.664Z,100699.83
2023-05-07T11:44:00.593Z,100690.08
2023-05-07T11:45:04.083Z,100700.77
2023-05-07T11:46:09.857Z,100692.75
2023-05-07T11:47:20.127Z,100689.14
2023-05-07T11:48:23.801Z,100691.81
2023-05-07T11:49:28.712Z,100697.16
2023-05-07T11:50:31.883Z,100690.93
2023-05-07T11:51:35.455Z,100693.59
2023-05-07T11:52:39.622Z,100693.59
2023-05-07T11:53:44.325Z,100692.75
2023-05-07T11:54:54.804Z,100693.59
2023-05-07T11:55:58.156Z,100691.81
2023-05-07T11:57:01.998Z,100693.59
2023-05-07T11:58:05.385Z,100686.47
2023-05-07T11:59:09.100Z,100693.52
2023-05-07T12:00:13.303Z,100694.41
2023-05-07T12:01:17.826Z,100688.09
2023-05-07T12:02:21.353Z,100694.33
2023-05-07T12:03:24.367Z,100695.18
2023-05-07T12:04:27.549Z,100696.03
2023-05-07T12:05:32.508Z,100693.36
2023-05-07T12:06:38.199Z,100692.45
2023-05-07T12:07:41.735Z,100696.95
2023-05-07T12:08:47.697Z,100694.28
2023-05-07T12:09:49.980Z,100698.69
2023-05-07T12:10:52.779Z,100691.53
2023-05-07T12:11:57.208Z,100695.05
2023-05-07T12:13:01.439Z,100691.45
2023-05-07T12:14:07.116Z,100688.77
2023-05-07T12:15:10.651Z,100686.09
2023-05-07T12:16:13.841Z,100684.28
2023-05-07T12:17:18.793Z,100686.02
2023-05-07T12:18:22.396Z,100682.50
2023-05-07T12:19:25.010Z,100683.34
2023-05-07T12:20:28.274Z,100685.09
2023-05-07T12:21:32.378Z,100678.00
2023-05-07T12:22:36.363Z,100679.82
2023-05-07T12:23:39.142Z,100683.34
2023-05-07T12:26:00.369Z,100682.01
2023-05-07T12:27:05.696Z,100681.77
2023-05-07T12:28:08.952Z,100681.77
2023-05-07T12:29:11.634Z,100680.00
2023-05-07T12:30:15.852Z,100686.31
2023-05-07T12:31:18.440Z,100683.64
2023-05-07T12:32:23.209Z,100677.41
2023-05-07T12:33:27.029Z,100676.48
2023-05-07T12:34:30.026Z,100667.69
2023-05-07T12:35:40.988Z,100673.88
2023-05-07T12:36:45.258Z,100671.21
2023-05-07T12:37:51.814Z,100663.28
2023-05-07T12:38:54.642Z,100671.30
2023-05-07T12:40:09.237Z,100665.95
2023-05-07T12:42:41.744Z,100666.38
2023-05-07T12:43:47.118Z,100666.88
2023-05-07T12:44:50.328Z,100658.95
2023-05-07T12:45:56.354Z,100665.14
2023-05-07T12:48:04.219Z,100662.55
2023-05-07T12:49:08.361Z,100663.44
2023-05-07T12:50:12.787Z,100670.57
2023-05-07T12:52:27.606Z,100667.31
2023-05-07T12:53:32.617Z,100670.48
2023-05-07T12:54:37.568Z,100667.81
2023-05-07T12:55:45.925Z,100666.03
2023-05-07T12:56:49.728Z,100663.28
2023-05-07T12:57:53.997Z,100667.69
2023-05-07T12:58:58.712Z,100662.34
2023-05-07T13:00:02.242Z,100669.39
2023-05-07T13:01:09.954Z,100664.94
2023-05-07T13:02:15.910Z,100671.98
2023-05-07T13:03:34.577Z,100669.31
2023-05-07T13:04:37.508Z,100666.63
2023-05-07T13:05:40.521Z,100663.95
2023-05-07T13:06:43.395Z,100664.89
2023-05-07T13:07:56.089Z,100657.77